METAR Data
IDs: Format: Raw Decoded Include TAF

Data at: 1411 UTC 05 Aug 2021

METAR for:KVUJ (Albemarle/Stanly Cnt, NC, US)
Text:KVUJ 051355Z AUTO 05005KT 10SM CLR 24/17 A3021 RMK AO2 T02440166
Temperature: 24.4°C ( 76°F)
Dewpoint: 16.6°C ( 62°F) [RH = 62%]
Pressure (altimeter):30.21 inches Hg (1023.1 mb)
Winds:from the NE (50 degrees) at 6 MPH (5 knots; 2.6 m/s)
Visibility:10 or more sm (16+ km)
Ceiling:at least 12,000 feet AGL
Clouds:sky clear below 12,000 feet AGL
QC Flag:automated observation with no human augmentation